createdAt,value
2023-11-24T00:02:53.773Z,80.01
2023-11-24T00:06:13.528Z,80.35
2023-11-24T00:09:52.176Z,80.37
2023-11-24T00:13:04.200Z,80.04
2023-11-24T00:16:36.951Z,79.87
2023-11-24T00:19:52.456Z,80.10
2023-11-24T00:23:07.915Z,80.30
2023-11-24T00:26:22.484Z,80.01
2023-11-24T00:29:45.956Z,80.82
2023-11-24T00:33:12.336Z,81.77
2023-11-24T00:36:35.368Z,82.57
2023-11-24T00:39:44.881Z,84.08
2023-11-24T00:43:04.270Z,84.05
2023-11-24T00:46:36.710Z,84.59
2023-11-24T00:49:45.467Z,84.23
2023-11-24T00:53:04.458Z,84.60
2023-11-24T00:56:43.816Z,85.65
2023-11-24T01:00:14.236Z,85.97
2023-11-24T01:03:44.304Z,85.64
2023-11-24T01:07:30.497Z,85.70
2023-11-24T01:10:52.384Z,86.44
2023-11-24T01:14:19.464Z,86.90
2023-11-24T01:18:02.329Z,85.70
2023-11-24T01:21:32.571Z,85.97
2023-11-24T01:24:53.713Z,86.90
2023-11-24T01:28:40.356Z,86.68
2023-11-24T01:32:25.865Z,86.10
2023-11-24T03:51:01.346Z,84.78
2023-11-24T03:54:27.122Z,84.31
2023-11-24T03:57:47.195Z,84.28
2023-11-24T04:01:17.379Z,84.46
2023-11-24T04:08:11.432Z,84.83
2023-11-24T04:11:46.552Z,84.98
2023-11-24T04:15:25.767Z,84.48
2023-11-24T06:43:33.780Z,84.97
2023-11-24T06:47:27.483Z,85.27
2023-11-24T06:51:07.789Z,84.75
2023-11-24T06:54:59.731Z,84.77
2023-11-24T06:58:36.604Z,84.67
2023-11-24T07:02:06.292Z,84.94
2023-11-24T07:25:03.162Z,85.07
2023-11-24T07:28:56.218Z,84.90
2023-11-24T07:32:49.341Z,84.76
2023-11-24T07:36:44.602Z,84.70
2023-11-24T08:04:02.511Z,84.46
2023-11-24T08:07:57.710Z,84.44
2023-11-24T08:11:51.307Z,84.22
2023-11-24T08:15:46.198Z,84.43
2023-11-24T08:31:07.846Z,83.86
2023-11-24T08:34:19.891Z,84.23
2023-11-24T08:37:33.247Z,84.05
2023-11-24T08:40:55.060Z,84.80
2023-11-24T08:44:27.729Z,85.03
2023-11-24T08:47:27.492Z,84.96
2023-11-24T08:51:06.068Z,85.42
2023-11-24T08:54:30.855Z,85.21
2023-11-24T08:58:01.204Z,85.24
2023-11-24T09:01:01.937Z,84.38
2023-11-24T09:04:32.864Z,83.24
2023-11-24T09:07:58.127Z,81.48
2023-11-24T09:11:24.087Z,79.69
2023-11-24T09:38:49.897Z,78.62
2023-11-24T09:48:34.272Z,78.23
2023-11-24T09:51:52.958Z,78.57
2023-11-24T09:55:07.366Z,79.52
2023-11-24T09:58:41.113Z,79.69
2023-11-24T10:01:49.824Z,79.86
2023-11-24T10:05:18.624Z,78.79
2023-11-24T10:08:24.188Z,77.27
2023-11-24T10:12:05.991Z,76.73
2023-11-24T10:15:39.017Z,76.55
2023-11-24T10:19:21.882Z,75.69
2023-11-24T10:23:17.921Z,75.74
2023-11-24T10:26:51.593Z,75.94
2023-11-24T10:29:57.086Z,76.04
2023-11-24T10:51:04.340Z,74.70
2023-11-24T10:54:42.807Z,74.07
2023-11-24T10:58:06.544Z,73.42
2023-11-24T11:01:58.016Z,72.67
2023-11-24T11:05:26.067Z,72.74
2023-11-24T11:09:09.547Z,72.01
2023-11-24T11:12:45.903Z,71.94
2023-11-24T11:16:23.283Z,71.91
2023-11-24T11:20:08.369Z,71.89
2023-11-24T11:23:59.585Z,70.56
2023-11-24T11:27:46.764Z,70.45
2023-11-24T12:01:01.242Z,63.15
2023-11-24T12:04:55.059Z,62.64
2023-11-24T12:08:50.750Z,62.18
2023-11-24T12:12:43.818Z,62.28
2023-11-24T12:28:25.213Z,58.29
2023-11-24T12:32:18.082Z,57.43
2023-11-24T12:36:11.743Z,56.34
2023-11-24T12:40:00.038Z,55.54
2023-11-24T13:41:18.449Z,47.28
2023-11-24T13:45:10.674Z,46.30
2023-11-24T13:49:03.915Z,46.07
2023-11-24T13:55:58.907Z,47.65
2023-11-24T13:59:13.789Z,49.14
2023-11-24T14:02:24.619Z,50.30
2023-11-24T14:05:54.332Z,51.15
2023-11-24T14:09:33.605Z,52.16
2023-11-24T14:12:39.141Z,52.86
2023-11-24T14:15:25.032Z,53.44
2023-11-24T14:18:39.724Z,53.98
2023-11-24T14:21:28.415Z,55.15
2023-11-24T14:24:44.049Z,55.71
2023-11-24T14:28:16.411Z,56.74
2023-11-24T14:31:14.301Z,57.36
2023-11-24T14:34:39.541Z,58.05
2023-11-24T14:37:44.623Z,58.79
2023-11-24T14:41:02.751Z,59.37
2023-11-24T14:44:33.997Z,59.93
2023-11-24T14:48:02.775Z,60.48
2023-11-24T14:51:09.270Z,61.22
2023-11-24T14:54:15.542Z,61.59
2023-11-24T14:57:32.597Z,62.53
2023-11-24T15:00:33.710Z,62.89
2023-11-24T15:03:35.326Z,63.26
2023-11-24T15:06:48.181Z,63.33
2023-11-24T15:10:12.904Z,63.84
2023-11-24T15:13:06.905Z,63.83
2023-11-24T15:16:54.157Z,63.93
2023-11-24T15:20:27.033Z,64.32
2023-11-24T15:24:22.873Z,64.46
2023-11-24T15:28:01.729Z,65.64
2023-11-24T15:31:09.606Z,65.93
2023-11-24T15:34:52.760Z,66.38
2023-11-24T15:38:23.531Z,67.33
2023-11-24T15:42:04.206Z,67.40
2023-11-24T15:45:32.510Z,67.57
2023-11-24T15:48:50.936Z,67.69
2023-11-24T15:52:04.909Z,67.90
2023-11-24T16:55:38.685Z,69.79
2023-11-24T17:14:31.072Z,69.83
2023-11-24T17:18:23.836Z,69.19
2023-11-24T17:22:16.802Z,69.52
2023-11-24T17:38:02.720Z,71.01
2023-11-24T18:00:18.064Z,72.17
2023-11-24T18:04:10.992Z,71.60
2023-11-24T18:07:49.216Z,71.81
2023-11-24T18:10:41.156Z,71.88
2023-11-24T18:13:53.143Z,72.11
2023-11-24T18:16:49.417Z,72.30
2023-11-24T18:20:15.550Z,72.48
2023-11-24T18:24:02.576Z,72.30
2023-11-24T18:43:30.279Z,73.70
2023-11-24T18:47:27.188Z,73.69
2023-11-24T18:51:10.375Z,73.85
2023-11-24T19:06:01.803Z,74.50
2023-11-24T19:09:47.493Z,74.24
2023-11-24T19:13:17.400Z,74.41
2023-11-24T19:32:25.620Z,75.41
2023-11-24T19:36:19.137Z,75.16
2023-11-24T19:39:54.595Z,75.00
2023-11-24T19:43:32.806Z,74.87
2023-11-24T19:47:27.696Z,75.26
2023-11-24T20:07:04.782Z,76.36
2023-11-24T20:10:58.503Z,76.18
2023-11-24T20:14:51.861Z,76.37
2023-11-24T20:18:45.410Z,76.76
2023-11-24T20:45:42.050Z,75.73
2023-11-24T20:49:35.159Z,75.50
2023-11-24T20:53:27.422Z,76.35
2023-11-24T20:57:21.661Z,76.01
2023-11-24T22:12:52.436Z,77.09
2023-11-24T22:16:45.602Z,77.19
2023-11-24T22:20:42.891Z,77.61
2023-11-24T22:36:44.986Z,78.75
2023-11-24T23:04:04.591Z,78.64
2023-11-24T23:07:57.458Z,78.22
2023-11-24T23:11:50.543Z,78.22
2023-11-24T23:15:45.015Z,78.81
2023-11-24T23:31:38.195Z,78.79
2023-11-24T23:35:19.953Z,79.28
2023-11-24T23:38:54.852Z,78.78
2023-11-24T23:54:09.645Z,78.81
2023-11-24T23:58:03.053Z,78.69
